createdAt,value
2018-12-21T00:00:21.131Z,0
2018-12-21T00:01:22.911Z,0
2018-12-21T00:02:24.426Z,0
2018-12-21T00:03:25.814Z,0
2018-12-21T00:04:27.218Z,0
2018-12-21T00:05:28.745Z,0
2018-12-21T00:06:30.146Z,0
2018-12-21T00:07:31.546Z,0
2018-12-21T00:08:33.056Z,0
2018-12-21T00:09:34.450Z,0
2018-12-21T00:10:35.937Z,0
2018-12-21T00:11:37.341Z,0
2018-12-21T00:12:38.815Z,0
2018-12-21T00:13:40.210Z,0
2018-12-21T00:14:41.697Z,0
2018-12-21T00:15:43.103Z,0
2018-12-21T00:16:44.786Z,0
2018-12-21T00:17:46.182Z,0
2018-12-21T00:18:47.663Z,0
2018-12-21T00:19:49.058Z,0
2018-12-21T00:20:50.546Z,0
2018-12-21T00:21:51.938Z,0
2018-12-21T00:22:53.426Z,0
2018-12-21T00:23:54.823Z,0
2018-12-21T00:24:56.225Z,0
2018-12-21T00:25:57.747Z,0
2018-12-21T00:26:59.142Z,0
2018-12-21T00:28:00.535Z,0
2018-12-21T00:29:02.073Z,0
2018-12-21T00:30:03.467Z,0
2018-12-21T00:31:04.948Z,0
2018-12-21T00:32:06.340Z,0
2018-12-21T00:33:07.831Z,0
2018-12-21T00:34:09.226Z,0
2018-12-21T00:35:10.620Z,0
2018-12-21T00:36:12.163Z,0
2018-12-21T00:37:13.559Z,0
2018-12-21T00:38:14.949Z,0
2018-12-21T00:39:16.480Z,0
2018-12-21T00:40:17.867Z,0
2018-12-21T00:41:19.262Z,0
2018-12-21T00:42:20.793Z,0
2018-12-21T00:43:22.196Z,0
2018-12-21T00:44:23.585Z,0
2018-12-21T00:45:25.116Z,0
2018-12-21T00:46:26.511Z,0
2018-12-21T00:47:27.910Z,0
2018-12-21T00:48:29.436Z,0
2018-12-21T00:49:30.835Z,0
2018-12-21T00:50:32.317Z,0
2018-12-21T00:51:33.711Z,0
2018-12-21T00:52:35.197Z,0
2018-12-21T00:53:36.588Z,0
2018-12-21T00:54:38.079Z,0
2018-12-21T00:55:39.473Z,0
2018-12-21T00:56:40.959Z,0
2018-12-21T00:57:42.354Z,0
2018-12-21T00:58:43.855Z,0
2018-12-21T00:59:45.252Z,0
2018-12-21T01:00:46.651Z,0
2018-12-21T01:01:48.160Z,0
2018-12-21T01:02:49.552Z,0
2018-12-21T01:03:50.951Z,0
2018-12-21T01:04:52.477Z,0
2018-12-21T01:05:53.881Z,0
2018-12-21T01:06:55.363Z,0
2018-12-21T01:07:56.755Z,0
2018-12-21T01:08:58.260Z,0
2018-12-21T01:09:59.655Z,0
2018-12-21T01:11:01.125Z,0
2018-12-21T01:12:02.516Z,0
2018-12-21T01:13:04.006Z,0
2018-12-21T01:14:05.399Z,0
2018-12-21T01:15:06.816Z,0
2018-12-21T01:16:08.338Z,0
2018-12-21T01:17:09.733Z,0
2018-12-21T01:18:11.129Z,0
2018-12-21T01:19:12.651Z,0
2018-12-21T01:20:14.045Z,0
2018-12-21T01:21:15.532Z,0
2018-12-21T01:22:16.928Z,0
2018-12-21T01:23:18.410Z,0
2018-12-21T01:24:19.808Z,0
2018-12-21T01:25:21.205Z,0
2018-12-21T01:26:22.739Z,0
2018-12-21T01:27:24.148Z,0
2018-12-21T01:28:25.544Z,0
2018-12-21T01:29:27.062Z,0
2018-12-21T01:30:28.457Z,0
2018-12-21T01:31:29.935Z,0
2018-12-21T01:32:31.334Z,0
2018-12-21T01:33:32.825Z,0
2018-12-21T01:34:34.223Z,0
2018-12-21T01:35:35.696Z,0
2018-12-21T01:36:37.096Z,0
2018-12-21T01:37:38.578Z,0
2018-12-21T01:38:39.983Z,0
2018-12-21T01:39:41.370Z,0
2018-12-21T01:40:42.899Z,0
2018-12-21T01:41:44.301Z,0
2018-12-21T01:42:45.691Z,0
2018-12-21T01:43:47.219Z,0
2018-12-21T01:44:48.622Z,0
2018-12-21T01:45:50.101Z,0
2018-12-21T01:46:51.496Z,0
2018-12-21T01:47:52.970Z,0
2018-12-21T01:48:54.752Z,0
2018-12-21T01:49:56.273Z,0
2018-12-21T01:50:57.709Z,0
2018-12-21T01:51:59.362Z,0
2018-12-21T01:53:00.751Z,0
2018-12-21T01:54:02.241Z,0
2018-12-21T01:55:03.633Z,0
2018-12-21T01:56:05.031Z,0
2018-12-21T01:57:06.562Z,0
2018-12-21T01:58:07.955Z,0
2018-12-21T01:59:09.352Z,0
2018-12-21T02:00:10.882Z,0
2018-12-21T02:01:12.278Z,0
2018-12-21T02:02:13.672Z,0
2018-12-21T02:03:15.203Z,0
2018-12-21T02:04:16.601Z,0
2018-12-21T02:05:17.991Z,0
2018-12-21T02:06:19.525Z,0
2018-12-21T02:07:20.920Z,0
2018-12-21T02:08:22.406Z,0
2018-12-21T02:09:23.802Z,0
2018-12-21T02:10:25.199Z,0
2018-12-21T02:11:26.727Z,0
2018-12-21T02:12:28.126Z,0
2018-12-21T02:13:29.518Z,0
2018-12-21T02:14:31.109Z,0
2018-12-21T02:15:32.494Z,0
2018-12-21T02:16:34.142Z,0
2018-12-21T02:17:35.528Z,0
2018-12-21T02:18:37.014Z,0
2018-12-21T02:19:38.408Z,0
2018-12-21T02:20:39.801Z,0
2018-12-21T02:21:41.339Z,0
2018-12-21T02:22:42.733Z,0
2018-12-21T02:23:44.131Z,0
2018-12-21T02:24:45.661Z,0
2018-12-21T02:25:47.059Z,0
2018-12-21T02:26:48.540Z,0
2018-12-21T02:27:49.936Z,0
2018-12-21T02:28:51.417Z,0
2018-12-21T02:29:52.816Z,0
2018-12-21T02:30:54.215Z,0
2018-12-21T02:31:55.743Z,0
2018-12-21T02:32:57.141Z,0
2018-12-21T02:33:58.534Z,0
2018-12-21T02:35:00.080Z,0
2018-12-21T02:36:01.466Z,0
2018-12-21T02:37:02.949Z,0
2018-12-21T02:38:04.339Z,0
2018-12-21T02:39:05.831Z,0
2018-12-21T02:40:07.224Z,0
2018-12-21T02:41:08.680Z,0
2018-12-21T02:42:10.146Z,0
2018-12-21T02:43:11.539Z,0
2018-12-21T02:44:12.934Z,0
2018-12-21T02:45:14.467Z,0
2018-12-21T02:46:15.866Z,0
2018-12-21T02:47:17.261Z,0
2018-12-21T02:48:18.788Z,0
2018-12-21T02:49:20.186Z,0
2018-12-21T02:50:21.586Z,0
2018-12-21T02:51:23.113Z,0
2018-12-21T02:52:24.505Z,0
2018-12-21T02:53:25.902Z,0
2018-12-21T02:54:27.434Z,0
2018-12-21T02:55:28.825Z,0
2018-12-21T02:56:30.223Z,0
2018-12-21T02:57:31.756Z,0
2018-12-21T02:58:33.146Z,0
2018-12-21T02:59:34.542Z,0
2018-12-21T03:00:36.075Z,0
2018-12-21T03:01:37.472Z,0
2018-12-21T03:02:38.870Z,0
2018-12-21T03:03:40.395Z,0
2018-12-21T03:04:41.791Z,0
2018-12-21T03:05:43.191Z,0
2018-12-21T03:06:44.716Z,0
2018-12-21T03:07:46.116Z,0
2018-12-21T03:08:47.512Z,0
2018-12-21T03:09:49.042Z,0
2018-12-21T03:10:50.439Z,0
2018-12-21T03:11:51.932Z,0
2018-12-21T03:12:53.319Z,0
2018-12-21T03:13:54.801Z,0
2018-12-21T03:14:56.227Z,0
2018-12-21T03:15:57.626Z,0
2018-12-21T03:17:00.146Z,0
2018-12-21T03:18:01.541Z,0
2018-12-21T03:19:02.935Z,0
2018-12-21T03:20:04.474Z,0
2018-12-21T03:21:05.823Z,0
2018-12-21T03:22:14.634Z,0
2018-12-21T03:23:08.794Z,0
2018-12-21T03:24:10.188Z,0
2018-12-21T03:25:11.587Z,0
2018-12-21T03:26:13.113Z,0
2018-12-21T03:27:14.504Z,0
2018-12-21T03:28:15.904Z,0
2018-12-21T03:29:17.430Z,0
2018-12-21T03:30:18.827Z,0
2018-12-21T03:31:20.222Z,0
2018-12-21T03:32:21.753Z,0
2018-12-21T03:33:23.527Z,0
2018-12-21T03:34:24.964Z,0
2018-12-21T03:35:26.531Z,0
2018-12-21T03:36:27.916Z,0
2018-12-21T03:37:29.581Z,0
2018-12-21T03:38:30.976Z,0
2018-12-21T03:39:32.449Z,0
2018-12-21T03:40:33.843Z,0
2018-12-21T03:41:35.242Z,0
2018-12-21T03:42:36.773Z,0
2018-12-21T03:43:38.169Z,0
2018-12-21T03:44:39.563Z,0
2018-12-21T03:45:41.093Z,0
2018-12-21T03:46:42.485Z,0
2018-12-21T03:47:43.885Z,0
2018-12-21T03:48:45.415Z,0
2018-12-21T03:49:46.878Z,0
2018-12-21T03:50:48.246Z,0
2018-12-21T03:51:49.771Z,0
2018-12-21T03:52:51.161Z,0
2018-12-21T03:53:52.825Z,0
2018-12-21T03:54:54.222Z,0
2018-12-21T03:55:55.618Z,0
2018-12-21T03:56:57.142Z,0
2018-12-21T03:57:58.539Z,0
2018-12-21T03:58:59.945Z,0
2018-12-21T04:00:01.484Z,0
2018-12-21T04:01:02.878Z,0
2018-12-21T04:02:04.267Z,0
2018-12-21T04:03:05.787Z,0
2018-12-21T04:04:07.183Z,0
2018-12-21T04:05:08.669Z,0
2018-12-21T04:06:10.066Z,0
2018-12-21T04:07:11.546Z,0
2018-12-21T04:08:12.940Z,0
2018-12-21T04:09:14.429Z,0
2018-12-21T04:10:15.824Z,0
2018-12-21T04:11:17.217Z,0
2018-12-21T04:12:18.749Z,0
2018-12-21T04:13:20.146Z,0
2018-12-21T04:14:21.566Z,0
2018-12-21T04:15:23.069Z,0
2018-12-21T04:16:24.465Z,0
2018-12-21T04:17:25.953Z,0
2018-12-21T04:18:27.353Z,0
2018-12-21T04:19:28.859Z,0
2018-12-21T04:20:30.300Z,0
2018-12-21T04:21:31.697Z,0
2018-12-21T04:22:34.156Z,0
2018-12-21T04:23:34.718Z,0
2018-12-21T04:24:36.113Z,0
2018-12-21T04:25:38.075Z,0
2018-12-21T04:26:39.475Z,0
2018-12-21T04:27:40.969Z,0
2018-12-21T04:28:42.363Z,0
2018-12-21T04:29:43.851Z,0
2018-12-21T04:30:45.260Z,0
2018-12-21T04:31:46.659Z,0
2018-12-21T04:32:48.172Z,0
2018-12-21T04:33:49.567Z,0
2018-12-21T04:34:50.965Z,0
2018-12-21T04:35:52.505Z,0
2018-12-21T04:36:53.888Z,0
2018-12-21T04:37:55.374Z,0
2018-12-21T04:38:56.865Z,0
2018-12-21T04:39:58.255Z,0
2018-12-21T04:40:59.661Z,0
2018-12-21T04:42:01.137Z,0
2018-12-21T04:43:02.533Z,0
2018-12-21T04:44:04.018Z,0
2018-12-21T04:45:05.413Z,0
2018-12-21T04:46:06.898Z,0
2018-12-21T04:47:09.288Z,0
2018-12-21T04:48:10.801Z,0
2018-12-21T04:49:12.200Z,0
2018-12-21T04:50:13.686Z,0
2018-12-21T04:51:15.083Z,0
2018-12-21T04:52:16.476Z,0
2018-12-21T04:53:18.005Z,0
2018-12-21T04:54:19.410Z,0
2018-12-21T04:55:20.806Z,0
2018-12-21T04:56:22.338Z,0
2018-12-21T04:57:23.723Z,0
2018-12-21T04:58:25.586Z,0
2018-12-21T04:59:26.985Z,0
2018-12-21T05:00:28.876Z,0
2018-12-21T05:01:30.271Z,0
2018-12-21T05:02:31.673Z,0
2018-12-21T05:03:33.234Z,0
2018-12-21T05:04:34.619Z,0
2018-12-21T05:05:36.014Z,0
2018-12-21T05:06:37.551Z,0
2018-12-21T05:07:38.945Z,0
2018-12-21T05:08:40.431Z,0
2018-12-21T05:09:41.822Z,0
2018-12-21T05:10:43.311Z,0
2018-12-21T05:11:44.704Z,0
2018-12-21T05:12:46.191Z,0
2018-12-21T05:13:47.587Z,0
2018-12-21T05:14:49.077Z,0
2018-12-21T05:15:50.471Z,0
2018-12-21T05:16:51.954Z,0
2018-12-21T05:17:53.350Z,0
2018-12-21T05:18:54.865Z,0
2018-12-21T05:19:56.230Z,0
2018-12-21T05:20:57.716Z,0
2018-12-21T05:21:59.111Z,0
2018-12-21T05:23:00.508Z,0
2018-12-21T05:24:02.038Z,0
2018-12-21T05:25:03.434Z,0
2018-12-21T05:26:04.853Z,0
2018-12-21T05:27:06.462Z,0
2018-12-21T05:28:07.856Z,0
2018-12-21T05:29:09.444Z,0
2018-12-21T05:30:10.841Z,0
2018-12-21T05:31:12.324Z,0
2018-12-21T05:32:13.725Z,0
2018-12-21T05:33:15.573Z,0
2018-12-21T05:34:17.447Z,0
2018-12-21T05:35:18.703Z,0
2018-12-21T05:36:20.646Z,0
2018-12-21T05:37:22.042Z,0
2018-12-21T05:38:23.636Z,0
2018-12-21T05:39:25.033Z,0
2018-12-21T05:40:26.518Z,0
2018-12-21T05:41:27.915Z,0
2018-12-21T05:42:29.398Z,0
2018-12-21T05:43:30.795Z,0
2018-12-21T05:44:32.279Z,0
2018-12-21T05:45:33.681Z,0
2018-12-21T05:46:35.162Z,0
2018-12-21T05:47:36.551Z,0
2018-12-21T05:48:38.454Z,0
2018-12-21T05:49:39.851Z,0
2018-12-21T05:50:41.329Z,0
2018-12-21T05:51:42.724Z,0
2018-12-21T05:52:44.973Z,0
2018-12-21T05:53:46.480Z,0
2018-12-21T05:54:47.874Z,0
2018-12-21T05:55:49.466Z,0
2018-12-21T05:56:51.090Z,0
2018-12-21T05:57:52.488Z,0
2018-12-21T05:58:53.880Z,0
2018-12-21T05:59:55.524Z,0
2018-12-21T06:00:56.922Z,0
2018-12-21T06:01:58.382Z,0
2018-12-21T06:03:01.105Z,0
2018-12-21T06:04:02.677Z,0
2018-12-21T06:05:04.070Z,0
2018-12-21T06:06:05.601Z,0
2018-12-21T06:07:07.438Z,0
2018-12-21T06:08:08.814Z,0
2018-12-21T06:09:10.333Z,0
2018-12-21T06:10:11.726Z,0
2018-12-21T06:11:13.083Z,0
2018-12-21T06:12:14.653Z,0
2018-12-21T06:13:16.049Z,0
2018-12-21T06:14:17.444Z,0
2018-12-21T06:15:18.975Z,0
2018-12-21T06:16:20.368Z,0
2018-12-21T06:17:21.759Z,0
2018-12-21T06:18:23.295Z,0
2018-12-21T06:19:25.141Z,0
2018-12-21T06:20:26.795Z,0
2018-12-21T06:21:28.192Z,0
2018-12-21T06:22:29.671Z,0
2018-12-21T06:23:31.095Z,0
2018-12-21T06:24:32.472Z,0
2018-12-21T06:25:33.994Z,0
2018-12-21T06:26:35.387Z,0
2018-12-21T06:27:36.781Z,0
2018-12-21T06:28:38.315Z,0
2018-12-21T06:29:39.710Z,0
2018-12-21T06:30:41.101Z,0
2018-12-21T06:31:42.635Z,0
2018-12-21T06:32:44.033Z,0
2018-12-21T06:33:46.017Z,0
2018-12-21T06:34:47.576Z,0
2018-12-21T06:35:48.983Z,0
2018-12-21T06:36:50.375Z,0
2018-12-21T06:37:52.599Z,0
2018-12-21T06:38:54.049Z,0
2018-12-21T06:39:55.445Z,0
2018-12-21T06:40:57.033Z,0
2018-12-21T06:41:58.430Z,0
2018-12-21T06:42:59.823Z,0
2018-12-21T06:44:01.357Z,0
2018-12-21T06:45:02.752Z,0
2018-12-21T06:46:04.234Z,0
2018-12-21T06:47:05.631Z,0
2018-12-21T06:48:07.026Z,0
2018-12-21T06:49:08.555Z,0
2018-12-21T06:50:09.960Z,0
2018-12-21T06:51:11.354Z,0
2018-12-21T06:52:12.877Z,0
2018-12-21T06:53:17.974Z,0
2018-12-21T06:54:15.631Z,0
2018-12-21T06:55:17.200Z,0
2018-12-21T06:56:18.600Z,0
2018-12-21T06:57:20.080Z,0
2018-12-21T06:58:21.477Z,0
2018-12-21T06:59:23.016Z,0
2018-12-21T07:00:24.405Z,0
2018-12-21T07:01:26.048Z,0
2018-12-21T07:02:27.443Z,0
2018-12-21T07:03:28.844Z,0
2018-12-21T07:04:30.369Z,0
2018-12-21T07:05:31.767Z,0
2018-12-21T07:06:33.159Z,0
2018-12-21T07:07:34.691Z,0
2018-12-21T07:08:36.093Z,0
2018-12-21T07:09:38.026Z,0
2018-12-21T07:10:39.624Z,0
2018-12-21T07:11:41.024Z,0
2018-12-21T07:12:42.418Z,0
2018-12-21T07:13:43.949Z,0
2018-12-21T07:14:45.344Z,0
2018-12-21T07:15:46.732Z,0
2018-12-21T07:16:48.267Z,0
2018-12-21T07:17:49.663Z,0
2018-12-21T07:18:51.063Z,4
2018-12-21T07:19:52.591Z,4
2018-12-21T07:20:53.979Z,0
2018-12-21T07:21:55.376Z,4
2018-12-21T07:22:56.914Z,4
2018-12-21T07:23:58.311Z,4
2018-12-21T07:24:59.704Z,8
2018-12-21T07:26:01.235Z,4
2018-12-21T07:27:02.631Z,8
2018-12-21T07:28:04.021Z,8
2018-12-21T07:29:05.557Z,8
2018-12-21T07:30:06.949Z,8
2018-12-21T07:31:08.343Z,12
2018-12-21T07:32:09.878Z,8
2018-12-21T07:33:12.564Z,8
2018-12-21T07:34:13.961Z,8
2018-12-21T07:35:15.429Z,12
2018-12-21T07:36:16.819Z,16
2018-12-21T07:37:18.311Z,16
2018-12-21T07:38:19.700Z,12
2018-12-21T07:39:21.092Z,16
2018-12-21T07:40:22.627Z,20
2018-12-21T07:41:25.163Z,24
2018-12-21T07:42:26.555Z,28
2018-12-21T07:43:28.178Z,28
2018-12-21T07:44:31.074Z,28
2018-12-21T07:45:32.470Z,24
2018-12-21T07:46:33.934Z,28
2018-12-21T07:47:35.329Z,24
2018-12-21T07:48:36.723Z,32
2018-12-21T07:49:38.254Z,32
2018-12-21T07:50:39.669Z,36
2018-12-21T07:51:41.060Z,40
2018-12-21T07:52:42.575Z,44
2018-12-21T07:53:43.968Z,48
2018-12-21T07:54:45.368Z,60
2018-12-21T07:55:46.898Z,56
2018-12-21T07:56:48.302Z,56
2018-12-21T07:57:49.747Z,44
2018-12-21T07:58:57.172Z,40
2018-12-21T07:59:52.500Z,40
2018-12-21T08:00:54.099Z,52
2018-12-21T08:01:55.496Z,56
2018-12-21T08:02:56.893Z,64
2018-12-21T08:03:58.420Z,68
2018-12-21T08:04:59.816Z,64
2018-12-21T08:06:01.340Z,72
2018-12-21T08:07:02.717Z,76
2018-12-21T08:08:04.181Z,76
2018-12-21T08:09:05.575Z,72
2018-12-21T08:10:07.006Z,60
2018-12-21T08:11:08.504Z,52
2018-12-21T08:12:09.899Z,48
2018-12-21T08:13:11.290Z,44
2018-12-21T08:14:12.823Z,40
2018-12-21T08:15:14.219Z,40
2018-12-21T08:16:15.652Z,40
2018-12-21T08:17:17.181Z,40
2018-12-21T08:18:18.574Z,36
2018-12-21T08:19:19.965Z,40
2018-12-21T08:20:21.480Z,44
2018-12-21T08:21:22.876Z,48
2018-12-21T08:22:24.289Z,56
2018-12-21T08:23:25.796Z,56
2018-12-21T08:24:27.185Z,60
2018-12-21T08:25:28.610Z,52
2018-12-21T08:26:30.120Z,52
2018-12-21T08:27:31.519Z,56
2018-12-21T08:28:33.040Z,52
2018-12-21T08:29:34.460Z,60
2018-12-21T08:30:35.857Z,64
2018-12-21T08:31:37.311Z,68
2018-12-21T08:32:38.726Z,64
2018-12-21T08:33:40.121Z,64
2018-12-21T08:34:41.637Z,68
2018-12-21T08:35:43.033Z,68
2018-12-21T08:36:44.522Z,80
2018-12-21T08:37:45.917Z,88
2018-12-21T08:38:47.395Z,96
2018-12-21T08:39:48.791Z,108
2018-12-21T08:40:50.189Z,124
2018-12-21T08:41:51.718Z,132
2018-12-21T08:42:53.118Z,140
2018-12-21T08:43:54.513Z,136
2018-12-21T08:44:56.041Z,144
2018-12-21T08:45:57.446Z,156
2018-12-21T08:46:58.834Z,172
2018-12-21T08:48:00.366Z,208
2018-12-21T08:49:01.810Z,168
2018-12-21T08:50:03.206Z,188
2018-12-21T08:51:04.683Z,216
2018-12-21T08:52:06.080Z,208
2018-12-21T08:53:07.858Z,192
2018-12-21T08:54:09.411Z,184
2018-12-21T08:55:11.934Z,184
2018-12-21T08:56:12.295Z,168
2018-12-21T08:57:13.781Z,140
2018-12-21T08:58:15.178Z,124
2018-12-21T08:59:16.575Z,108
2018-12-21T09:00:17.974Z,92
2018-12-21T09:01:19.494Z,88
2018-12-21T09:02:21.184Z,72
2018-12-21T09:03:22.251Z,84
2018-12-21T09:04:31.978Z,104
2018-12-21T09:05:25.941Z,96
2018-12-21T09:06:27.516Z,100
2018-12-21T09:07:28.950Z,84
2018-12-21T09:08:30.397Z,84
2018-12-21T09:09:31.794Z,80
2018-12-21T09:10:33.191Z,68
2018-12-21T09:11:34.720Z,64
2018-12-21T09:12:36.116Z,56
2018-12-21T09:13:37.515Z,56
2018-12-21T09:14:39.042Z,60
2018-12-21T09:15:40.442Z,76
2018-12-21T09:16:41.836Z,84
2018-12-21T09:17:43.366Z,124
2018-12-21T09:18:44.770Z,144
2018-12-21T09:19:46.162Z,200
2018-12-21T09:20:47.687Z,192
2018-12-21T09:21:49.090Z,168
2018-12-21T09:22:50.567Z,184
2018-12-21T09:23:51.962Z,232
2018-12-21T09:24:53.369Z,268
2018-12-21T09:25:54.886Z,320
2018-12-21T09:26:56.285Z,340
2018-12-21T09:27:57.681Z,344
2018-12-21T09:28:59.210Z,372
2018-12-21T09:30:00.606Z,380
2018-12-21T09:31:02.000Z,424
2018-12-21T09:32:05.198Z,420
2018-12-21T09:33:05.292Z,368
2018-12-21T09:34:06.820Z,324
2018-12-21T09:35:08.216Z,292
2018-12-21T09:36:09.627Z,272
2018-12-21T09:37:11.142Z,236
2018-12-21T09:38:12.536Z,220
2018-12-21T09:39:13.935Z,204
2018-12-21T09:40:15.464Z,204
2018-12-21T09:41:16.860Z,212
2018-12-21T09:42:18.338Z,224
2018-12-21T09:43:19.745Z,208
2018-12-21T09:44:21.225Z,232
2018-12-21T09:45:22.624Z,240
2018-12-21T09:46:24.107Z,268
2018-12-21T09:47:25.503Z,228
2018-12-21T09:48:26.986Z,168
2018-12-21T09:49:28.391Z,144
2018-12-21T09:50:29.785Z,168
2018-12-21T09:51:31.308Z,192
2018-12-21T09:52:32.705Z,264
2018-12-21T09:53:34.108Z,272
2018-12-21T09:54:35.630Z,276
2018-12-21T09:55:37.031Z,364
2018-12-21T09:56:38.424Z,392
2018-12-21T09:57:39.952Z,292
2018-12-21T09:58:41.357Z,280
2018-12-21T09:59:42.755Z,304
2018-12-21T10:00:44.273Z,288
2018-12-21T10:01:45.677Z,352
2018-12-21T10:02:47.117Z,308
2018-12-21T10:03:49.619Z,296
2018-12-21T10:04:51.046Z,316
2018-12-21T10:05:52.448Z,384
2018-12-21T10:06:53.939Z,360
2018-12-21T10:07:55.343Z,332
2018-12-21T10:08:56.822Z,368
2018-12-21T10:09:58.224Z,464
2018-12-21T10:10:59.623Z,404
2018-12-21T10:12:01.142Z,312
2018-12-21T10:13:02.541Z,372
2018-12-21T10:14:04.047Z,372
2018-12-21T10:15:05.566Z,376
2018-12-21T10:16:06.827Z,436
2018-12-21T10:17:08.347Z,496
2018-12-21T10:18:09.784Z,584
2018-12-21T10:19:11.234Z,572
2018-12-21T10:20:12.701Z,516
2018-12-21T10:21:14.898Z,520
2018-12-21T10:22:16.293Z,480
2018-12-21T10:23:17.807Z,492
2018-12-21T10:24:19.404Z,528
2018-12-21T10:25:20.924Z,508
2018-12-21T10:26:22.342Z,488
2018-12-21T10:27:23.732Z,432
2018-12-21T10:28:25.213Z,456
2018-12-21T10:29:26.705Z,432
2018-12-21T10:30:28.111Z,416
2018-12-21T10:31:29.927Z,540
2018-12-21T10:32:31.332Z,536
2018-12-21T10:33:33.844Z,456
2018-12-21T10:34:35.430Z,396
2018-12-21T10:35:36.939Z,432
2018-12-21T10:36:38.329Z,436
2018-12-21T10:37:39.728Z,420
2018-12-21T10:38:41.640Z,424
2018-12-21T10:39:43.037Z,432
2018-12-21T10:40:44.437Z,532
2018-12-21T10:41:46.373Z,636
2018-12-21T10:42:47.769Z,712
2018-12-21T10:43:49.168Z,760
2018-12-21T10:44:50.718Z,704
2018-12-21T10:45:52.115Z,676
2018-12-21T10:46:53.907Z,600
2018-12-21T10:47:55.454Z,680
2018-12-21T10:48:56.855Z,624
2018-12-21T10:49:58.331Z,688
2018-12-21T10:50:59.728Z,748
2018-12-21T10:52:01.126Z,860
2018-12-21T10:53:02.681Z,836
2018-12-21T10:54:09.892Z,744
2018-12-21T10:55:11.139Z,592
2018-12-21T10:56:12.708Z,540
2018-12-21T10:57:18.364Z,564
2018-12-21T10:58:19.757Z,564
2018-12-21T10:59:24.385Z,504
2018-12-21T11:00:25.780Z,512
2018-12-21T11:01:27.183Z,428
2018-12-21T11:02:29.047Z,452
2018-12-21T11:03:30.261Z,412
2018-12-21T11:04:33.660Z,440
2018-12-21T11:05:35.109Z,380
2018-12-21T11:06:36.510Z,352
2018-12-21T11:07:38.097Z,336
2018-12-21T11:08:39.614Z,348
2018-12-21T11:09:41.019Z,348
2018-12-21T11:10:42.414Z,344
2018-12-21T11:11:43.937Z,384
2018-12-21T11:12:45.336Z,396
2018-12-21T11:13:46.814Z,364
2018-12-21T11:14:48.219Z,332
2018-12-21T11:15:49.906Z,384
2018-12-21T11:16:51.306Z,396
2018-12-21T11:17:52.705Z,480
2018-12-21T11:18:54.231Z,564
2018-12-21T11:19:55.629Z,500
2018-12-21T11:20:57.025Z,596
2018-12-21T11:21:58.552Z,464
2018-12-21T11:22:59.956Z,428
2018-12-21T11:24:01.357Z,568
2018-12-21T11:25:02.868Z,464
2018-12-21T11:26:04.296Z,552
2018-12-21T11:27:05.691Z,484
2018-12-21T11:28:07.191Z,488
2018-12-21T11:29:08.592Z,452
2018-12-21T11:30:10.007Z,476
2018-12-21T11:31:11.515Z,440
2018-12-21T11:32:12.914Z,476
2018-12-21T11:33:14.306Z,472
2018-12-21T11:34:16.406Z,416
2018-12-21T11:35:17.806Z,440
2018-12-21T11:36:19.714Z,440
2018-12-21T11:37:21.612Z,448
2018-12-21T11:38:23.005Z,420
2018-12-21T11:39:24.790Z,384
2018-12-21T11:40:26.321Z,344
2018-12-21T11:41:27.818Z,288
2018-12-21T11:42:29.220Z,304
2018-12-21T11:43:30.848Z,336
2018-12-21T11:44:32.283Z,332
2018-12-21T11:45:33.730Z,364
2018-12-21T11:46:35.125Z,340
2018-12-21T11:51:20.242Z,368
2018-12-21T11:52:21.637Z,356
2018-12-21T11:53:23.125Z,384
2018-12-21T11:54:24.706Z,364
2018-12-21T11:55:26.340Z,436
2018-12-21T11:56:27.933Z,368
2018-12-21T11:57:29.610Z,416
2018-12-21T11:58:31.281Z,348
2018-12-21T11:59:32.924Z,380
2018-12-21T12:00:34.531Z,472
2018-12-21T12:01:36.181Z,444
2018-12-21T12:02:37.672Z,392
2018-12-21T12:03:40.823Z,356
2018-12-21T12:04:42.858Z,476
2018-12-21T12:05:44.431Z,488
2018-12-21T12:06:45.893Z,408
2018-12-21T12:07:47.774Z,436
2018-12-21T12:08:49.367Z,516
2018-12-21T12:09:50.991Z,460
2018-12-21T12:10:55.113Z,472
2018-12-21T12:11:58.092Z,428
2018-12-21T12:12:59.669Z,352
2018-12-21T12:14:01.201Z,248
2018-12-21T12:15:03.127Z,284
2018-12-21T12:16:04.680Z,332
2018-12-21T12:17:06.242Z,324
2018-12-21T12:18:08.100Z,256
2018-12-21T12:19:09.671Z,244
2018-12-21T12:20:11.363Z,284
2018-12-21T12:21:13.031Z,216
2018-12-21T12:22:14.570Z,236
2018-12-21T12:23:16.347Z,244
2018-12-21T12:24:17.961Z,324
2018-12-21T12:25:19.766Z,240
2018-12-21T12:26:21.122Z,268
2018-12-21T12:27:22.985Z,276
2018-12-21T12:28:24.646Z,232
2018-12-21T12:29:26.450Z,280
2018-12-21T12:30:28.112Z,216
2018-12-21T12:31:30.069Z,264
2018-12-21T12:32:31.483Z,240
2018-12-21T12:33:33.259Z,240
2018-12-21T12:34:34.701Z,232
2018-12-21T12:35:36.560Z,260
2018-12-21T12:36:38.059Z,244
2018-12-21T12:37:39.904Z,232
2018-12-21T12:38:41.394Z,292
2018-12-21T12:39:43.283Z,288
2018-12-21T12:40:44.874Z,260
2018-12-21T12:41:46.537Z,464
2018-12-21T12:42:48.473Z,436
2018-12-21T12:43:50.231Z,416
2018-12-21T12:44:51.986Z,388
2018-12-21T12:45:53.791Z,352
2018-12-21T12:46:55.398Z,288
2018-12-21T12:47:57.322Z,268
2018-12-21T12:48:58.758Z,284
2018-12-21T12:50:00.573Z,324
2018-12-21T12:51:02.296Z,404
2018-12-21T12:52:04.154Z,360
2018-12-21T12:53:05.838Z,288
2018-12-21T12:54:07.541Z,232
2018-12-21T12:55:09.212Z,228
2018-12-21T12:56:10.696Z,268
2018-12-21T12:57:12.459Z,292
2018-12-21T12:58:14.183Z,208
2018-12-21T12:59:15.591Z,164
2018-12-21T13:00:17.814Z,232
2018-12-21T13:01:19.725Z,260
2018-12-21T13:02:21.386Z,312
2018-12-21T13:03:23.602Z,300
2018-12-21T13:04:25.049Z,548
2018-12-21T13:05:26.931Z,304
2018-12-21T13:06:28.584Z,224
2018-12-21T13:07:30.241Z,228
2018-12-21T13:08:31.853Z,412
2018-12-21T13:09:33.296Z,300
2018-12-21T13:10:34.733Z,292
2018-12-21T13:11:36.593Z,268
2018-12-21T13:12:37.951Z,320
2018-12-21T13:13:40.012Z,296
2018-12-21T13:14:41.660Z,380
2018-12-21T13:15:44.317Z,324
2018-12-21T13:16:45.949Z,308
2018-12-21T13:17:47.602Z,348
2018-12-21T13:18:49.620Z,360
2018-12-21T13:19:51.266Z,404
2018-12-21T13:20:52.916Z,248
2018-12-21T13:21:54.636Z,364
2018-12-21T13:22:56.359Z,296
2018-12-21T13:23:58.278Z,272
2018-12-21T13:25:00.054Z,368
2018-12-21T13:26:01.769Z,396
2018-12-21T13:27:03.598Z,492
2018-12-21T13:28:05.351Z,332
2018-12-21T13:29:06.932Z,328
2018-12-21T13:30:08.602Z,364
2018-12-21T13:31:10.202Z,240
2018-12-21T13:32:12.184Z,208
2018-12-21T13:33:13.779Z,280
2018-12-21T13:34:15.765Z,280
2018-12-21T13:35:17.362Z,288
2018-12-21T13:36:19.211Z,296
2018-12-21T13:37:20.963Z,268
2018-12-21T13:38:22.855Z,292
2018-12-21T13:39:24.530Z,404
2018-12-21T13:40:26.448Z,268
2018-12-21T13:41:28.077Z,364
2018-12-21T13:42:29.766Z,588
2018-12-21T13:43:31.597Z,428
2018-12-21T13:44:33.341Z,304
2018-12-21T13:45:35.152Z,304
2018-12-21T13:46:37.070Z,308
2018-12-21T13:47:38.825Z,408
2018-12-21T13:48:40.426Z,320
2018-12-21T13:49:42.066Z,436
2018-12-21T13:50:43.834Z,292
2018-12-21T13:51:45.488Z,296
2018-12-21T13:52:47.318Z,312
2018-12-21T13:53:48.835Z,204
2018-12-21T13:54:50.433Z,152
2018-12-21T13:55:52.301Z,188
2018-12-21T13:56:53.900Z,288
2018-12-21T13:57:55.355Z,296
2018-12-21T13:58:57.213Z,412
2018-12-21T13:59:58.864Z,416
2018-12-21T14:01:00.691Z,424
2018-12-21T14:02:02.281Z,364
2018-12-21T14:03:03.965Z,312
2018-12-21T14:04:05.790Z,180
2018-12-21T14:05:07.402Z,100
2018-12-21T14:06:09.066Z,108
2018-12-21T14:07:11.090Z,168
2018-12-21T14:08:12.759Z,208
2018-12-21T14:09:14.843Z,268
2018-12-21T14:10:16.236Z,228
2018-12-21T14:11:17.961Z,236
2018-12-21T14:12:19.709Z,212
2018-12-21T14:13:21.294Z,236
2018-12-21T14:14:23.013Z,268
2018-12-21T14:15:24.669Z,248
2018-12-21T14:16:26.322Z,152
2018-12-21T14:17:28.193Z,228
2018-12-21T14:18:29.737Z,164
2018-12-21T14:19:31.369Z,188
2018-12-21T14:20:33.114Z,204
2018-12-21T14:21:34.842Z,172
2018-12-21T14:22:36.547Z,152
2018-12-21T14:23:38.226Z,188
2018-12-21T14:24:39.818Z,184
2018-12-21T14:25:41.601Z,108
2018-12-21T14:26:43.325Z,116
2018-12-21T14:27:45.070Z,172
2018-12-21T14:28:46.735Z,184
2018-12-21T14:29:48.458Z,160
2018-12-21T14:30:50.040Z,196
2018-12-21T14:31:51.962Z,116
2018-12-21T14:32:53.661Z,108
2018-12-21T14:33:55.572Z,128
2018-12-21T14:34:58.894Z,140
2018-12-21T14:36:01.329Z,116
2018-12-21T14:37:02.850Z,100
2018-12-21T14:38:04.490Z,140
2018-12-21T14:39:06.431Z,116
2018-12-21T14:40:08.047Z,132
2018-12-21T14:41:09.636Z,156
2018-12-21T14:42:11.337Z,120
2018-12-21T14:43:13.120Z,136
2018-12-21T14:44:14.967Z,124
2018-12-21T14:45:16.579Z,88